KBML/BML METAR and TAF weather

Enter ICAO airport designator
Station Type Date Time Source
KBML METAR 2018/01/23 00:52 UTC NOAA

KBML 230052Z AUTO 17009G15KT 4SM -SN SCT028 OVC039 M03/M06 A3020 RMK AO2 SLP245 P0001 T10331061


Station Type Date Time Source
KBML Decoded METAR 2018/01/23 00:52 UTC NOAA

BERLIN MUNICIPAL AIRPORT, NH, United States (KBML) 44-35N 71-11W 345M
Jan 22, 2018 - 07:52 PM EST / 2018.01.23 0052 UTC
Wind: from the S (170 degrees) at 10 MPH (9 KT) gusting to 17 MPH (15 KT):0
Visibility: 4 mile(s):0
Sky conditions: overcast
Weather: light snow
Precipitation last hour: 0.01 inches
Temperature: 26.1 F (-3.3 C)
Windchill: 15 F (-9 C):1
Dew Point: 21.0 F (-6.1 C)
Relative Humidity: 80%
Pressure (altimeter): 30.2 in. Hg (1022 hPa)
ob: KBML 230052Z AUTO 17009G15KT 4SM -SN SCT028 OVC039 M03/M06 A3020 RMK AO2 SLP245 P0001 T10331061
cycle: 1

Station Type Date Time Source
KBML TAF UTC NOAA

Error!


Example: see airport list